createdAt,value
2019-03-21T00:01:08.011Z,30.17
2019-03-21T00:03:37.281Z,33.43
2019-03-21T00:06:08.574Z,34.83
2019-03-21T00:08:37.825Z,34.30
2019-03-21T00:11:13.090Z,28.17
2019-03-21T00:13:42.264Z,32.50
2019-03-21T00:16:13.651Z,31.53
2019-03-21T00:18:43.059Z,30.40
2019-03-21T00:21:12.255Z,33.50
2019-03-21T00:23:41.336Z,38.43
2019-03-21T00:26:10.642Z,37.77
2019-03-21T00:28:39.797Z,34.50
2019-03-21T00:31:09.004Z,33.47
2019-03-21T00:33:38.270Z,31.30
2019-03-21T00:36:07.422Z,34.87
2019-03-21T00:38:36.566Z,33.10
2019-03-21T00:41:05.812Z,27.70
2019-03-21T00:43:35.025Z,33.40
2019-03-21T00:46:04.203Z,30.53
2019-03-21T00:48:33.302Z,31.97
2019-03-21T00:51:02.438Z,35.17
2019-03-21T00:53:31.502Z,31.87
2019-03-21T00:56:00.667Z,32.27
2019-03-21T00:58:29.892Z,28.03
2019-03-21T01:01:02.200Z,36.40
2019-03-21T01:03:31.431Z,37.80
2019-03-21T01:06:00.648Z,42.10
2019-03-21T01:08:29.806Z,43.67
2019-03-21T01:10:58.949Z,41.40
2019-03-21T01:13:31.056Z,35.37
2019-03-21T01:16:00.200Z,31.83
2019-03-21T01:18:29.406Z,28.13
2019-03-21T01:20:58.687Z,25.60
2019-03-21T01:23:28.032Z,25.43
2019-03-21T01:26:00.187Z,23.47
2019-03-21T01:28:29.300Z,24.37
2019-03-21T01:30:58.496Z,21.73
2019-03-21T01:33:27.668Z,21.30
2019-03-21T01:35:56.847Z,21.90
2019-03-21T01:38:25.954Z,21.83
2019-03-21T01:40:57.666Z,21.70
2019-03-21T01:43:27.182Z,21.80
2019-03-21T01:45:56.324Z,22.73
2019-03-21T01:48:25.437Z,22.43
2019-03-21T01:50:54.972Z,22.00
2019-03-21T01:53:24.187Z,19.73
2019-03-21T01:55:53.350Z,21.30
2019-03-21T01:58:22.546Z,18.80
2019-03-21T02:00:58.068Z,24.23
2019-03-21T02:03:27.252Z,31.70
2019-03-21T02:05:56.404Z,28.97
2019-03-21T02:08:25.612Z,28.77
2019-03-21T02:10:54.866Z,28.70
2019-03-21T02:13:24.010Z,39.83
2019-03-21T02:15:53.223Z,34.70
2019-03-21T02:18:22.415Z,38.83
2019-03-21T02:20:51.478Z,34.90
2019-03-21T02:23:20.622Z,33.57
2019-03-21T02:25:49.798Z,35.17
2019-03-21T02:28:19.066Z,30.50
2019-03-21T02:30:50.398Z,27.70
2019-03-21T02:33:25.722Z,26.83
2019-03-21T02:35:54.864Z,27.97
2019-03-21T02:38:24.013Z,32.27
2019-03-21T02:40:56.241Z,32.13
2019-03-21T02:43:25.368Z,32.27
2019-03-21T02:45:54.513Z,31.83
2019-03-21T02:48:23.717Z,28.43
2019-03-21T02:50:52.838Z,31.70
2019-03-21T02:53:22.040Z,29.67
2019-03-21T02:55:51.573Z,31.63
2019-03-21T02:58:20.707Z,33.90
2019-03-21T03:00:49.855Z,30.90
2019-03-21T03:03:19.024Z,35.97
2019-03-21T03:05:48.162Z,39.40
2019-03-21T03:08:17.299Z,37.07
2019-03-21T03:10:58.023Z,37.73
2019-03-21T03:13:27.228Z,38.70
2019-03-21T03:15:56.375Z,35.83
2019-03-21T03:18:26.212Z,36.23
2019-03-21T03:20:55.358Z,38.97
2019-03-21T03:23:24.476Z,41.67
2019-03-21T03:25:53.652Z,44.90
2019-03-21T03:28:25.770Z,38.40
2019-03-21T03:30:57.396Z,35.83
2019-03-21T03:33:27.138Z,40.50
2019-03-21T03:35:56.364Z,39.80
2019-03-21T03:38:25.500Z,38.77
2019-03-21T03:41:06.720Z,38.37
2019-03-21T03:43:35.927Z,40.83
2019-03-21T03:46:05.151Z,42.33
2019-03-21T03:48:34.384Z,36.60
2019-03-21T03:51:03.580Z,37.20
2019-03-21T03:53:32.718Z,31.10
2019-03-21T03:56:02.023Z,29.60
2019-03-21T03:58:37.115Z,39.77
2019-03-21T04:01:06.414Z,27.20
2019-03-21T04:03:35.962Z,30.83
2019-03-21T04:06:06.065Z,37.10
2019-03-21T04:08:35.228Z,38.50
2019-03-21T04:11:04.440Z,45.20
2019-03-21T04:13:33.651Z,37.93
2019-03-21T04:16:02.903Z,35.53
2019-03-21T04:18:32.119Z,41.90
2019-03-21T04:21:07.158Z,32.03
2019-03-21T04:23:36.290Z,34.20
2019-03-21T04:26:08.443Z,36.47
2019-03-21T04:28:37.656Z,39.07
2019-03-21T04:31:06.858Z,36.70
2019-03-21T04:33:35.974Z,41.93
2019-03-21T04:36:05.186Z,40.43
2019-03-21T04:38:34.372Z,42.23
2019-03-21T04:41:03.633Z,40.03
2019-03-21T04:43:32.844Z,42.50
2019-03-21T04:46:03.532Z,39.80
2019-03-21T04:48:33.176Z,39.90
2019-03-21T04:51:02.327Z,42.27
2019-03-21T04:53:31.402Z,39.13
2019-03-21T04:56:00.506Z,35.03
2019-03-21T04:58:29.579Z,36.93
2019-03-21T05:00:59.474Z,44.73
2019-03-21T05:03:30.226Z,39.77
2019-03-21T05:05:59.435Z,38.20
2019-03-21T05:08:28.494Z,44.93
2019-03-21T05:10:58.147Z,52.37
2019-03-21T05:13:27.355Z,52.03
2019-03-21T05:15:56.543Z,62.03
2019-03-21T05:18:28.564Z,56.17
2019-03-21T05:20:58.641Z,60.80
2019-03-21T05:23:27.773Z,53.87
2019-03-21T05:25:56.999Z,58.17
2019-03-21T05:28:26.162Z,67.00
2019-03-21T05:31:01.371Z,51.50
2019-03-21T05:33:30.617Z,50.77
2019-03-21T05:35:59.768Z,47.53
2019-03-21T05:38:31.792Z,43.60
2019-03-21T05:41:01.047Z,44.30
2019-03-21T05:43:41.997Z,45.73
2019-03-21T05:46:11.168Z,42.70
2019-03-21T05:48:40.231Z,47.57
2019-03-21T05:51:09.436Z,49.03
2019-03-21T05:53:38.598Z,43.10
2019-03-21T05:56:08.202Z,47.53
2019-03-21T05:58:37.334Z,46.10
2019-03-21T06:01:14.389Z,48.17
2019-03-21T06:03:50.684Z,41.73
2019-03-21T06:06:22.849Z,42.80
2019-03-21T06:08:51.984Z,47.87
2019-03-21T06:11:21.122Z,45.80
2019-03-21T06:13:50.367Z,51.93
2019-03-21T06:16:19.501Z,55.33
2019-03-21T06:19:00.425Z,49.83
2019-03-21T06:21:38.101Z,55.63
2019-03-21T06:24:16.201Z,50.77
2019-03-21T06:26:54.017Z,45.00
2019-03-21T06:29:23.202Z,44.87
2019-03-21T06:31:52.338Z,40.80
2019-03-21T06:34:21.513Z,43.03
2019-03-21T06:36:50.768Z,45.57
2019-03-21T06:39:19.897Z,43.40
2019-03-21T06:41:49.110Z,48.97
2019-03-21T06:44:18.265Z,47.37
2019-03-21T06:46:49.729Z,45.80
2019-03-21T06:49:18.154Z,44.23
2019-03-21T06:51:47.394Z,38.23
2019-03-21T06:54:16.455Z,39.00
2019-03-21T06:56:45.591Z,39.77
2019-03-21T06:59:14.708Z,38.23
2019-03-21T07:01:43.905Z,34.90
2019-03-21T07:04:12.999Z,37.80
2019-03-21T07:06:42.152Z,34.90
2019-03-21T07:09:11.211Z,34.13
2019-03-21T07:11:40.286Z,36.43
2019-03-21T07:14:09.546Z,41.17
2019-03-21T07:16:38.599Z,36.30
2019-03-21T07:19:07.799Z,34.63
2019-03-21T07:21:36.892Z,34.90
2019-03-21T07:24:06.132Z,36.43
2019-03-21T07:26:35.278Z,36.80
2019-03-21T07:29:04.513Z,31.90
2019-03-21T07:31:33.726Z,33.83
2019-03-21T07:34:02.803Z,34.37
2019-03-21T07:36:32.059Z,35.13
2019-03-21T07:39:01.200Z,33.00
2019-03-21T07:41:30.423Z,32.20
2019-03-21T07:43:59.886Z,35.93
2019-03-21T07:46:29.095Z,36.33
2019-03-21T07:48:58.326Z,32.27
2019-03-21T07:51:27.429Z,31.40
2019-03-21T07:53:56.580Z,36.73
2019-03-21T07:56:25.840Z,30.77
2019-03-21T07:58:57.605Z,33.33
2019-03-21T08:01:25.845Z,26.67
2019-03-21T08:03:54.990Z,29.23
2019-03-21T08:06:24.246Z,32.13
2019-03-21T08:08:53.380Z,31.43
2019-03-21T08:11:22.533Z,25.30
2019-03-21T08:13:51.641Z,31.80
2019-03-21T08:16:20.789Z,30.83
2019-03-21T08:18:49.925Z,28.40
2019-03-21T08:21:19.080Z,27.50
2019-03-21T08:23:48.300Z,23.83
2019-03-21T08:26:17.442Z,22.77
2019-03-21T08:28:46.752Z,24.60
2019-03-21T08:31:15.979Z,23.90
2019-03-21T08:33:45.505Z,26.50
2019-03-21T08:36:14.866Z,22.33
2019-03-21T08:38:44.093Z,24.10
2019-03-21T08:41:13.341Z,24.27
2019-03-21T08:43:42.536Z,24.57
2019-03-21T08:46:11.768Z,19.80
2019-03-21T08:48:40.998Z,19.73
2019-03-21T08:51:10.247Z,21.87
2019-03-21T08:53:39.498Z,23.10
2019-03-21T08:56:08.652Z,25.97
2019-03-21T08:58:37.908Z,23.17
2019-03-21T09:01:07.184Z,22.43
2019-03-21T09:03:36.392Z,18.57
2019-03-21T09:06:06.654Z,19.00
2019-03-21T09:08:35.886Z,17.60
2019-03-21T09:11:05.094Z,31.10
2019-03-21T09:13:34.294Z,22.40
2019-03-21T09:16:03.514Z,21.27
2019-03-21T09:18:32.657Z,16.10
2019-03-21T09:21:01.906Z,15.43
2019-03-21T09:23:31.044Z,18.80
2019-03-21T09:26:00.282Z,16.13
2019-03-21T09:28:29.597Z,16.30
2019-03-21T09:30:58.808Z,15.17
2019-03-21T09:33:28.033Z,16.17
2019-03-21T09:35:57.296Z,19.67
2019-03-21T09:38:26.528Z,18.57
2019-03-21T09:40:56.029Z,14.13
2019-03-21T09:43:25.226Z,12.47
2019-03-21T09:45:54.545Z,13.20
2019-03-21T09:48:23.685Z,15.20
2019-03-21T09:50:52.926Z,12.83
2019-03-21T09:53:22.074Z,12.53
2019-03-21T09:55:51.381Z,13.13
2019-03-21T09:58:20.557Z,12.10
2019-03-21T10:00:49.758Z,12.87
2019-03-21T10:03:18.985Z,11.57
2019-03-21T10:05:48.258Z,12.77
2019-03-21T10:08:17.402Z,12.40
2019-03-21T10:10:46.467Z,10.67
2019-03-21T10:13:15.635Z,11.27
2019-03-21T10:15:44.835Z,10.47
2019-03-21T10:18:13.965Z,10.37
2019-03-21T10:20:43.155Z,11.30
2019-03-21T10:23:12.355Z,9.77
2019-03-21T10:25:41.500Z,11.83
2019-03-21T10:28:10.845Z,10.40
2019-03-21T10:30:41.483Z,9.80
2019-03-21T10:33:13.246Z,13.50
2019-03-21T10:35:43.388Z,11.60
2019-03-21T10:38:12.653Z,11.37
2019-03-21T10:40:41.939Z,9.90
2019-03-21T10:43:11.277Z,10.23
2019-03-21T10:45:40.456Z,9.27
2019-03-21T10:48:09.663Z,10.17
2019-03-21T10:50:40.695Z,23.40
2019-03-21T10:53:10.315Z,11.50
2019-03-21T10:55:39.734Z,9.70
2019-03-21T10:58:09.473Z,9.90
2019-03-21T11:00:38.681Z,12.23
2019-03-21T11:03:08.084Z,12.80
2019-03-21T11:05:37.515Z,8.77
2019-03-21T11:08:07.129Z,10.20
2019-03-21T11:10:36.524Z,9.70
2019-03-21T11:13:06.402Z,8.93
2019-03-21T11:15:35.805Z,10.63
2019-03-21T11:18:05.107Z,9.63
2019-03-21T11:20:39.395Z,11.63
2019-03-21T11:23:09.109Z,9.03
2019-03-21T11:25:38.578Z,8.73
2019-03-21T11:28:08.208Z,10.40
2019-03-21T11:30:42.095Z,9.73
2019-03-21T11:33:11.570Z,9.37
2019-03-21T11:35:40.807Z,9.73
2019-03-21T11:38:10.026Z,9.10
2019-03-21T11:40:39.244Z,33.23
2019-03-21T11:43:09.761Z,11.07
2019-03-21T11:45:39.033Z,8.83
2019-03-21T11:48:08.519Z,8.17
2019-03-21T11:50:37.751Z,8.87
2019-03-21T11:53:07.050Z,9.03
2019-03-21T11:55:36.324Z,11.17
2019-03-21T11:58:05.878Z,9.43
2019-03-21T12:00:42.756Z,8.17
2019-03-21T12:03:06.318Z,9.07
2019-03-21T12:05:35.565Z,10.17
2019-03-21T12:08:04.862Z,12.07
2019-03-21T12:10:33.947Z,10.23
2019-03-21T12:13:03.204Z,10.87
2019-03-21T12:15:32.556Z,7.10
2019-03-21T12:18:01.763Z,9.93
2019-03-21T12:20:32.712Z,10.13
2019-03-21T12:23:02.004Z,8.23
2019-03-21T12:25:31.246Z,9.47
2019-03-21T12:28:01.682Z,7.73
2019-03-21T12:30:36.223Z,6.87
2019-03-21T12:33:05.938Z,7.37
2019-03-21T12:35:35.280Z,8.30
2019-03-21T12:38:05.202Z,6.87
2019-03-21T12:40:34.495Z,6.50
2019-03-21T12:43:04.037Z,7.67
2019-03-21T12:45:33.172Z,8.37
2019-03-21T12:48:02.310Z,8.73
2019-03-21T12:50:31.572Z,16.57
2019-03-21T12:53:00.788Z,7.90
2019-03-21T12:55:29.847Z,7.10
2019-03-21T12:57:59.090Z,9.67
2019-03-21T13:00:34.097Z,9.80
2019-03-21T13:03:03.329Z,8.77
2019-03-21T13:05:33.038Z,7.90
2019-03-21T13:08:02.243Z,8.43
2019-03-21T13:10:31.392Z,7.83
2019-03-21T13:13:01.017Z,7.60
2019-03-21T13:15:30.497Z,8.57
2019-03-21T13:18:00.582Z,9.47
2019-03-21T13:20:30.062Z,9.37
2019-03-21T13:22:59.116Z,7.73
2019-03-21T13:25:28.517Z,7.80
2019-03-21T13:27:58.021Z,8.57
2019-03-21T13:30:27.221Z,7.07
2019-03-21T13:32:56.440Z,7.17
2019-03-21T13:35:32.456Z,7.23
2019-03-21T13:37:56.525Z,6.87
2019-03-21T13:40:25.663Z,6.27
2019-03-21T13:42:55.987Z,7.83
2019-03-21T13:45:25.310Z,6.20
2019-03-21T13:47:54.519Z,8.03
2019-03-21T13:50:23.702Z,14.23
2019-03-21T13:53:03.971Z,12.80
2019-03-21T13:55:23.943Z,6.83
2019-03-21T13:57:54.898Z,8.93
2019-03-21T14:00:24.101Z,7.50
2019-03-21T14:02:53.321Z,7.53
2019-03-21T14:05:22.585Z,8.10
2019-03-21T14:07:51.803Z,13.53
2019-03-21T14:10:21.061Z,6.87
2019-03-21T14:12:50.362Z,7.63
2019-03-21T14:15:19.634Z,7.33
2019-03-21T14:17:48.782Z,64.90
2019-03-21T14:20:18.128Z,15.43
2019-03-21T14:22:47.294Z,6.80
2019-03-21T14:25:16.699Z,8.63
2019-03-21T14:27:45.969Z,8.23
2019-03-21T14:30:19.179Z,5.83
2019-03-21T14:32:48.454Z,7.63
2019-03-21T14:35:17.799Z,9.00
2019-03-21T14:37:47.035Z,8.07
2019-03-21T14:40:17.196Z,9.03
2019-03-21T14:42:46.521Z,8.07
2019-03-21T14:45:16.969Z,7.87
2019-03-21T14:47:46.240Z,9.00
2019-03-21T14:50:16.914Z,10.23
2019-03-21T14:52:46.118Z,9.20
2019-03-21T14:55:16.126Z,8.37
2019-03-21T14:57:45.325Z,6.13
2019-03-21T15:00:19.024Z,9.60
2019-03-21T15:02:48.251Z,10.10
2019-03-21T15:05:17.601Z,8.00
2019-03-21T15:07:46.773Z,10.53
2019-03-21T15:10:17.793Z,10.20
2019-03-21T15:12:46.966Z,7.53
2019-03-21T15:15:16.591Z,7.70
2019-03-21T15:17:45.797Z,7.47
2019-03-21T15:20:16.914Z,9.10
2019-03-21T15:22:46.118Z,8.77
2019-03-21T15:25:15.828Z,9.60
2019-03-21T15:27:45.057Z,8.07
2019-03-21T15:30:21.745Z,11.10
2019-03-21T15:32:51.162Z,8.47
2019-03-21T15:35:20.292Z,6.37
2019-03-21T15:37:49.499Z,9.40
2019-03-21T15:40:18.943Z,8.30
2019-03-21T15:42:48.121Z,7.53
2019-03-21T15:45:23.160Z,7.63
2019-03-21T15:47:49.264Z,7.27
2019-03-21T15:50:37.689Z,10.40
2019-03-21T15:53:07.390Z,8.33
2019-03-21T15:55:36.593Z,10.80
2019-03-21T15:58:05.799Z,9.37
2019-03-21T16:00:40.558Z,8.40
2019-03-21T16:03:11.852Z,7.00
2019-03-21T16:05:41.773Z,9.67
2019-03-21T16:08:11.032Z,10.07
2019-03-21T16:10:40.242Z,9.73
2019-03-21T16:13:09.669Z,9.43
2019-03-21T16:15:38.964Z,10.77
2019-03-21T16:18:08.243Z,9.83
2019-03-21T16:20:37.978Z,9.13
2019-03-21T16:23:07.218Z,11.90
2019-03-21T16:25:36.435Z,11.17
2019-03-21T16:28:05.735Z,10.83
2019-03-21T16:30:34.982Z,11.23
2019-03-21T16:33:04.200Z,10.17
2019-03-21T16:35:33.408Z,11.70
2019-03-21T16:38:02.582Z,8.90
2019-03-21T16:40:31.730Z,10.63
2019-03-21T16:43:05.594Z,11.57
2019-03-21T16:45:34.922Z,15.07
2019-03-21T16:48:04.772Z,9.87
2019-03-21T16:50:33.967Z,11.03
2019-03-21T16:53:03.221Z,10.23
2019-03-21T16:55:32.463Z,13.27
2019-03-21T16:58:01.677Z,14.67
2019-03-21T17:00:30.787Z,19.90
2019-03-21T17:02:59.930Z,19.07
2019-03-21T17:05:30.155Z,19.83
2019-03-21T17:08:10.510Z,16.53
2019-03-21T17:10:30.842Z,19.73
2019-03-21T17:13:04.394Z,22.33
2019-03-21T17:15:31.137Z,27.13
2019-03-21T17:18:00.360Z,24.33
2019-03-21T17:20:29.594Z,26.97
2019-03-21T17:22:59.378Z,25.03
2019-03-21T17:25:31.582Z,23.07
2019-03-21T17:28:01.006Z,23.67
2019-03-21T17:30:30.191Z,25.47
2019-03-21T17:32:59.418Z,42.70
2019-03-21T17:35:28.736Z,41.40
2019-03-21T17:37:57.992Z,37.43
2019-03-21T17:40:27.149Z,35.97
2019-03-21T17:42:56.452Z,31.60
2019-03-21T17:45:25.625Z,28.87
2019-03-21T17:47:54.861Z,27.53
2019-03-21T17:50:24.009Z,27.73
2019-03-21T17:52:53.198Z,32.63
2019-03-21T17:55:23.922Z,29.23
2019-03-21T17:57:53.139Z,23.10
2019-03-21T18:00:25.655Z,25.00
2019-03-21T18:02:55.373Z,22.93
2019-03-21T18:05:24.598Z,24.07
2019-03-21T18:07:53.851Z,24.33
2019-03-21T18:10:35.510Z,25.50
2019-03-21T18:13:05.086Z,26.80
2019-03-21T18:15:34.282Z,28.00
2019-03-21T18:18:03.837Z,27.20
2019-03-21T18:20:33.035Z,30.33
2019-03-21T18:23:02.527Z,32.00
2019-03-21T18:25:31.730Z,31.87
2019-03-21T18:28:01.038Z,32.43
2019-03-21T18:30:32.738Z,37.23
2019-03-21T18:33:01.894Z,37.30
2019-03-21T18:35:31.153Z,35.10
2019-03-21T18:38:00.387Z,38.67
2019-03-21T18:40:29.594Z,37.67
2019-03-21T18:42:58.925Z,31.63
2019-03-21T18:45:28.164Z,69.07
2019-03-21T18:47:57.517Z,45.80
2019-03-21T18:50:26.877Z,46.00
2019-03-21T18:52:56.212Z,41.67
2019-03-21T18:55:25.522Z,44.37
2019-03-21T18:57:54.919Z,66.47
2019-03-21T19:00:24.322Z,50.23
2019-03-21T19:02:53.539Z,47.07
2019-03-21T19:05:22.790Z,63.60
2019-03-21T19:07:52.001Z,52.70
2019-03-21T19:10:21.253Z,45.40
2019-03-21T19:12:50.524Z,40.03
2019-03-21T19:15:19.929Z,43.83
2019-03-21T19:17:49.337Z,49.30
2019-03-21T19:20:21.692Z,46.03
2019-03-21T19:22:50.991Z,44.37
2019-03-21T19:25:20.362Z,49.03
2019-03-21T19:27:49.594Z,52.70
2019-03-21T19:30:20.719Z,44.50
2019-03-21T19:32:50.031Z,42.73
2019-03-21T19:35:19.678Z,50.27
2019-03-21T19:37:49.009Z,44.23
2019-03-21T19:40:20.261Z,43.63
2019-03-21T19:42:49.696Z,47.23
2019-03-21T19:45:19.961Z,38.33
2019-03-21T19:47:49.240Z,40.30
2019-03-21T19:50:20.093Z,44.67
2019-03-21T19:52:49.354Z,44.23
2019-03-21T19:55:30.388Z,38.33
2019-03-21T19:57:49.654Z,43.30
2019-03-21T20:00:23.708Z,44.10
2019-03-21T20:02:52.919Z,49.37
2019-03-21T20:05:22.214Z,47.03
2019-03-21T20:07:51.483Z,42.30
2019-03-21T20:10:22.466Z,53.93
2019-03-21T20:12:51.707Z,45.70
2019-03-21T20:15:21.155Z,43.17
2019-03-21T20:17:50.438Z,39.70
2019-03-21T20:20:20.264Z,43.40
2019-03-21T20:22:49.527Z,54.40
2019-03-21T20:25:18.859Z,50.23
2019-03-21T20:27:48.078Z,59.60
2019-03-21T20:30:21.618Z,65.73
2019-03-21T20:32:50.762Z,82.50
2019-03-21T20:35:20.076Z,129.53
2019-03-21T20:37:49.392Z,170.83
2019-03-21T20:40:19.726Z,224.57
2019-03-21T20:42:49.034Z,242.10
2019-03-21T20:45:19.706Z,228.57
2019-03-21T20:47:48.947Z,230.43
2019-03-21T20:50:18.491Z,197.10
2019-03-21T20:52:47.763Z,177.27
2019-03-21T20:55:17.494Z,168.37
2019-03-21T20:57:46.827Z,137.17
2019-03-21T21:00:19.223Z,127.50
2019-03-21T21:02:49.215Z,117.53
2019-03-21T21:05:18.583Z,117.70
2019-03-21T21:07:48.050Z,114.17
2019-03-21T21:10:17.370Z,128.57
2019-03-21T21:12:46.573Z,105.00
2019-03-21T21:15:17.894Z,99.83
2019-03-21T21:17:47.147Z,96.63
2019-03-21T21:20:18.412Z,94.37
2019-03-21T21:22:47.654Z,103.97
2019-03-21T21:25:16.920Z,95.10
2019-03-21T21:27:49.962Z,105.67
2019-03-21T21:30:21.750Z,120.57
2019-03-21T21:32:50.983Z,172.30
2019-03-21T21:35:20.237Z,160.87
2019-03-21T21:37:49.569Z,153.47
2019-03-21T21:40:19.086Z,144.73
2019-03-21T21:42:48.389Z,129.97
2019-03-21T21:45:18.302Z,126.77
2019-03-21T21:47:47.527Z,124.23
2019-03-21T21:50:17.879Z,121.10
2019-03-21T21:52:47.229Z,112.07
2019-03-21T21:55:16.464Z,108.67
2019-03-21T21:57:45.637Z,108.93
2019-03-21T22:00:22.478Z,98.50
2019-03-21T22:02:51.778Z,91.03
2019-03-21T22:05:21.071Z,99.37
2019-03-21T22:07:50.240Z,77.87
2019-03-21T22:10:19.468Z,123.13
2019-03-21T22:12:48.880Z,149.03
2019-03-21T22:15:18.132Z,140.40
2019-03-21T22:17:47.351Z,146.97
2019-03-21T22:20:17.243Z,133.43
2019-03-21T22:22:46.808Z,117.87
2019-03-21T22:25:16.413Z,114.13
2019-03-21T22:27:45.567Z,118.67
2019-03-21T22:30:18.968Z,99.17
2019-03-21T22:32:51.741Z,101.60
2019-03-21T22:35:20.950Z,94.67
2019-03-21T22:37:50.203Z,112.30
2019-03-21T22:40:19.771Z,118.33
2019-03-21T22:42:48.994Z,108.87
2019-03-21T22:45:18.552Z,111.47
2019-03-21T22:47:50.262Z,95.90
2019-03-21T22:50:18.809Z,108.87
2019-03-21T22:52:48.069Z,112.03
2019-03-21T22:55:17.219Z,98.87
2019-03-21T22:57:46.477Z,104.43
2019-03-21T23:00:29.940Z,113.07
2019-03-21T23:02:59.398Z,102.03
2019-03-21T23:05:29.952Z,107.13
2019-03-21T23:07:59.533Z,108.53
2019-03-21T23:10:29.020Z,120.30
2019-03-21T23:12:58.466Z,100.73
2019-03-21T23:15:27.952Z,87.43
2019-03-21T23:17:57.372Z,103.83
2019-03-21T23:20:26.863Z,78.23
2019-03-21T23:22:56.369Z,91.07
2019-03-21T23:25:25.762Z,87.50
2019-03-21T23:27:55.168Z,97.23
2019-03-21T23:30:24.686Z,106.07
2019-03-21T23:32:54.107Z,95.17
2019-03-21T23:35:23.627Z,103.30
2019-03-21T23:37:53.204Z,110.37
2019-03-21T23:40:22.603Z,127.03
2019-03-21T23:42:52.110Z,124.30
2019-03-21T23:45:21.841Z,120.77
2019-03-21T23:47:51.327Z,134.27
2019-03-21T23:50:20.929Z,132.47
2019-03-21T23:52:50.432Z,128.13
2019-03-21T23:55:19.828Z,111.30
2019-03-21T23:57:49.244Z,108.67
